VTPPVTCC

Guest
Details From VTPP - Phitsanulok
To VTCC - Chiang Mai Intl
Flight Number -
Tags generated
Created
Modified
Stats Distance 142 nm / 263 km
Max Altitude 12,400 ft / 3,780 m
Waypoints 3
Social Downloads 1
Likes 0
Share VATSIM

Download

Looking for another format? Having issues loading an existing format? Contact us
Advertisement - Login to hide

Notes

Basic altitude profile: - Ascent Rate: 2500ft/min - Ascent Speed: 250kts - Cruise Altitude: 35000ft - Cruise Speed: 420kts - Descent Rate: 1500ft/min - Descent Speed: 250kts Options: - Use NATs: yes - Use PACOTS: yes - Use low airways: yes - Use high airways: yes

Route

VTPP THS VTCC

ID Type Via Altitude Latitude Longitude Leg Dist Tot Dist Heading (true) Name
O VTPP APT - 0 ft / 0 m 16.78294˚ 100.27912˚ - 0 nm - Phitsanulok
THS NDB - 12,400 ft / 3,780 m 17.23522˚ 99.82201˚ 37 nm 37 nm 316° / 316° SUKHOTHAI NDB-DME
O VTCC APT - 0 ft / 0 m 18.76685˚ 98.96264˚ 104 nm 142 nm 332° / 332° Chiang Mai Intl

Altitude Profile

Advertisement - Login to hide

VTPP

Details ICAO VTPP (PHS)
Name Phitsanulok
Region Thailand
Timezone Asia/Bangkok (UTC+7.0)
Stats Elevation 145 ft / 44 m (AMSL)
Location 16.782939° 100.279122°
Runways 1
Magnetic Variation 0.714° W

METAR

VTPP 170400Z 03005KT 9999 FEW025 27/14 Q1019

Decode

TAF

TAF VTPP 162300Z 1700/1724 08005KT 9999 FEW035

Decode

Departure Runways

ID Width Length Bearing (true) Bearing (mag) Surface Threshold Offset Overrun Length
14 148 ft / 45 m 9,871 ft / 3,009 m 144.06° 144.77° Asphalt 0 ft / 0 m 0 ft / 0 m
32 148 ft / 45 m 9,871 ft / 3,009 m 324.06° 324.77° Asphalt 0 ft / 0 m 0 ft / 0 m

VTCC

Details ICAO VTCC (CNX)
Name Chiang Mai Intl
Region Thailand
Timezone Asia/Bangkok (UTC+7.0)
Stats Elevation 1,036 ft / 316 m (AMSL)
Location 18.766845° 98.962643°
Runways 1
Magnetic Variation 0.738° W

METAR

VTCC 170400Z 02005KT 9999 FEW035 26/16 Q1022 NOSIG

Decode

TAF

TAF VTCC 162300Z 1700/1806 05005KT 9999 FEW035

Decode

Destination Runways

ID Width Length Bearing (true) Bearing (mag) Surface Threshold Offset Overrun Length
18 148 ft / 45 m 10,237 ft / 3,120 m 180.22° 180.96° Asphalt 0 ft / 0 m 974 ft / 297 m
36 148 ft / 45 m 10,237 ft / 3,120 m 0.22° 0.96° Asphalt 0 ft / 0 m 341 ft / 104 m

Approach Navaids

Runway Type Ident Frequency Range Bearing (true) Bearing (mag) Slope Elevation
36 Localiser ICMA 109.90 MHz 18 nm / 33 km 359.49° 0.23° - 1,035 ft / 315 m (AMSL)
36 Glidescope ICMA 109.90 MHz 10 nm / 19 km 0.22° 0.96° 3.00° 1,005 ft / 306 m (AMSL)
36 DME ICMA 109.90 MHz 18 nm / 33 km - - - 1,035 ft / 315 m (AMSL)

Popular Alternatives